sensor_id;sensor_type;location;lat;lon;timestamp;pressure;altitude;pressure_sealevel;temperature;humidity
50650;BME280;36621;60.058;30.346;2023-06-22T00:03:00;101101.41;;;22.28;44.85
50650;BME280;36621;60.058;30.346;2023-06-22T00:10:32;101090.84;;;22.21;45.02
50650;BME280;36621;60.058;30.346;2023-06-22T00:18:06;101072.50;;;22.08;44.79
50650;BME280;36621;60.058;30.346;2023-06-22T00:25:39;101081.28;;;21.97;45.09
50650;BME280;36621;60.058;30.346;2023-06-22T00:33:11;101076.41;;;21.94;46.24
50650;BME280;36621;60.058;30.346;2023-06-22T00:40:45;101064.09;;;21.83;46.51
50650;BME280;36621;60.058;30.346;2023-06-22T00:48:20;101066.94;;;21.74;46.42
50650;BME280;36621;60.058;30.346;2023-06-22T00:55:53;100989.84;;;21.29;46.75
50650;BME280;36621;60.058;30.346;2023-06-22T01:03:25;101059.06;;;21.76;46.60
50650;BME280;36621;60.058;30.346;2023-06-22T01:11:01;101067.75;;;21.75;46.43
50650;BME280;36621;60.058;30.346;2023-06-22T01:18:41;101056.78;;;21.78;46.16
50650;BME280;36621;60.058;30.346;2023-06-22T01:26:18;101065.06;;;21.99;45.70
50650;BME280;36621;60.058;30.346;2023-06-22T01:33:55;101048.00;;;21.89;45.88
50650;BME280;36621;60.058;30.346;2023-06-22T01:41:29;101050.91;;;21.92;45.81
50650;BME280;36621;60.058;30.346;2023-06-22T01:49:02;101053.47;;;21.97;46.07
50650;BME280;36621;60.058;30.346;2023-06-22T01:56:35;101056.03;;;22.02;45.93
50650;BME280;36621;60.058;30.346;2023-06-22T02:04:12;101042.63;;;22.17;45.74
50650;BME280;36621;60.058;30.346;2023-06-22T02:11:46;101028.97;;;22.12;45.96
50650;BME280;36621;60.058;30.346;2023-06-22T02:19:23;101036.44;;;22.32;46.01
50650;BME280;36621;60.058;30.346;2023-06-22T02:26:55;100985.88;;;22.18;46.05
50650;BME280;36621;60.058;30.346;2023-06-22T02:34:29;101031.13;;;22.64;45.66
50650;BME280;36621;60.058;30.346;2023-06-22T02:42:01;101027.28;;;22.69;45.46
50650;BME280;36621;60.058;30.346;2023-06-22T02:49:34;101037.81;;;23.94;43.24
50650;BME280;36621;60.058;30.346;2023-06-22T02:57:06;101061.03;;;25.65;39.62
50650;BME280;36621;60.058;30.346;2023-06-22T03:04:47;101058.91;;;25.23;40.46
50650;BME280;36621;60.058;30.346;2023-06-22T03:12:20;101005.13;;;23.50;43.75
50650;BME280;36621;60.058;30.346;2023-06-22T03:19:59;101050.00;;;23.33;44.92
50650;BME280;36621;60.058;30.346;2023-06-22T03:27:31;101043.97;;;23.59;45.07
50650;BME280;36621;60.058;30.346;2023-06-22T03:35:04;101015.69;;;24.33;43.15
50650;BME280;36621;60.058;30.346;2023-06-22T03:42:39;101004.72;;;24.24;43.10
50650;BME280;36621;60.058;30.346;2023-06-22T03:50:11;101020.31;;;24.41;43.12
50650;BME280;36621;60.058;30.346;2023-06-22T03:57:45;100999.94;;;24.25;43.48
50650;BME280;36621;60.058;30.346;2023-06-22T04:05:18;101008.31;;;24.89;42.92
50650;BME280;36621;60.058;30.346;2023-06-22T04:12:50;100959.34;;;25.14;41.15
50650;BME280;36621;60.058;30.346;2023-06-22T04:20:23;100984.78;;;25.68;40.04
50650;BME280;36621;60.058;30.346;2023-06-22T04:27:57;100985.69;;;25.72;38.94
50650;BME280;36621;60.058;30.346;2023-06-22T04:35:29;100984.03;;;25.48;40.19
50650;BME280;36621;60.058;30.346;2023-06-22T04:43:01;100992.63;;;25.59;40.70
50650;BME280;36621;60.058;30.346;2023-06-22T04:50:34;100961.75;;;26.98;37.61
50650;BME280;36621;60.058;30.346;2023-06-22T04:58:06;100982.06;;;30.28;31.79
50650;BME280;36621;60.058;30.346;2023-06-22T05:05:39;100951.16;;;32.54;27.87
50650;BME280;36621;60.058;30.346;2023-06-22T05:13:12;100963.06;;;33.42;27.14
50650;BME280;36621;60.058;30.346;2023-06-22T05:20:45;100952.53;;;32.39;27.69
50650;BME280;36621;60.058;30.346;2023-06-22T05:28:17;100912.09;;;30.27;30.67
50650;BME280;36621;60.058;30.346;2023-06-22T05:35:56;100936.31;;;34.25;26.23
50650;BME280;36621;60.058;30.346;2023-06-22T05:43:29;100922.22;;;36.70;22.24
50650;BME280;36621;60.058;30.346;2023-06-22T05:51:03;100914.97;;;37.63;20.55
50650;BME280;36621;60.058;30.346;2023-06-22T14:13:56;100592.84;;;27.65;42.34
50650;BME280;36621;60.058;30.346;2023-06-22T14:21:29;100596.22;;;27.26;44.64
50650;BME280;36621;60.058;30.346;2023-06-22T14:29:02;100613.94;;;26.89;43.53
50650;BME280;36621;60.058;30.346;2023-06-22T14:36:37;100650.22;;;26.37;45.73
50650;BME280;36621;60.058;30.346;2023-06-22T14:44:09;100613.91;;;25.45;49.71
50650;BME280;36621;60.058;30.346;2023-06-22T14:51:42;100655.38;;;24.70;56.23
50650;BME280;36621;60.058;30.346;2023-06-22T14:59:15;100621.78;;;24.04;57.07
50650;BME280;36621;60.058;30.346;2023-06-22T15:06:47;100604.97;;;23.62;58.57
50650;BME280;36621;60.058;30.346;2023-06-22T15:14:20;100605.28;;;23.40;57.87
50650;BME280;36621;60.058;30.346;2023-06-22T15:21:53;100627.41;;;23.33;60.13
50650;BME280;36621;60.058;30.346;2023-06-22T15:29:26;100602.53;;;23.09;60.73
50650;BME280;36621;60.058;30.346;2023-06-22T15:36:58;100564.94;;;22.67;61.33
50650;BME280;36621;60.058;30.346;2023-06-22T15:44:33;100562.78;;;22.60;62.16
50650;BME280;36621;60.058;30.346;2023-06-22T15:52:08;100571.41;;;22.55;62.63
50650;BME280;36621;60.058;30.346;2023-06-22T15:59:41;100573.28;;;22.67;61.02
50650;BME280;36621;60.058;30.346;2023-06-22T16:07:14;100520.97;;;22.41;61.83
50650;BME280;36621;60.058;30.346;2023-06-22T16:14:46;100554.34;;;22.72;60.54
50650;BME280;36621;60.058;30.346;2023-06-22T16:22:18;100555.81;;;22.66;60.06
50650;BME280;36621;60.058;30.346;2023-06-22T16:29:51;100534.50;;;22.74;60.47
50650;BME280;36621;60.058;30.346;2023-06-22T16:37:23;100535.31;;;22.75;60.20
50650;BME280;36621;60.058;30.346;2023-06-22T16:44:56;100548.78;;;22.88;59.55
50650;BME280;36621;60.058;30.346;2023-06-22T16:52:28;100547.78;;;22.97;58.82
50650;BME280;36621;60.058;30.346;2023-06-22T17:00:01;100510.34;;;22.94;58.70
50650;BME280;36621;60.058;30.346;2023-06-22T17:07:37;100501.59;;;23.12;58.59
50650;BME280;36621;60.058;30.346;2023-06-22T17:15:20;100493.84;;;23.21;58.73
50650;BME280;36621;60.058;30.346;2023-06-22T17:22:56;100478.41;;;23.07;59.31
50650;BME280;36621;60.058;30.346;2023-06-22T17:30:29;100464.13;;;23.09;58.63
50650;BME280;36621;60.058;30.346;2023-06-22T17:38:05;100497.09;;;23.23;59.30
50650;BME280;36621;60.058;30.346;2023-06-22T17:45:43;100503.38;;;23.39;57.21
50650;BME280;36621;60.058;30.346;2023-06-22T17:53:16;100432.09;;;22.80;57.98
50650;BME280;36621;60.058;30.346;2023-06-22T18:00:54;100485.44;;;23.17;57.97
50650;BME280;36621;60.058;30.346;2023-06-22T18:08:37;100492.19;;;23.00;58.36
50650;BME280;36621;60.058;30.346;2023-06-22T18:16:10;100496.13;;;22.99;58.68
50650;BME280;36621;60.058;30.346;2023-06-22T18:23:43;100427.56;;;22.55;58.90
50650;BME280;36621;60.058;30.346;2023-06-22T18:31:19;100486.38;;;22.89;59.01
50650;BME280;36621;60.058;30.346;2023-06-22T18:38:52;100489.19;;;22.74;59.24
50650;BME280;36621;60.058;30.346;2023-06-22T18:46:35;100480.09;;;22.93;58.60
50650;BME280;36621;60.058;30.346;2023-06-22T18:54:08;100485.22;;;22.75;59.02
50650;BME280;36621;60.058;30.346;2023-06-22T19:01:41;100479.94;;;22.69;59.66
50650;BME280;36621;60.058;30.346;2023-06-22T19:09:13;100468.38;;;22.67;60.16
50650;BME280;36621;60.058;30.346;2023-06-22T19:16:47;100461.63;;;22.68;58.67
50650;BME280;36621;60.058;30.346;2023-06-22T19:24:28;100490.22;;;22.85;58.91
50650;BME280;36621;60.058;30.346;2023-06-22T19:32:02;100481.13;;;22.68;60.14
50650;BME280;36621;60.058;30.346;2023-06-22T19:39:35;100484.88;;;22.60;60.56
50650;BME280;36621;60.058;30.346;2023-06-22T19:47:08;100475.38;;;22.61;60.97
50650;BME280;36621;60.058;30.346;2023-06-22T19:54:40;100481.75;;;22.62;61.92
50650;BME280;36621;60.058;30.346;2023-06-22T20:02:13;100477.72;;;22.59;62.25
50650;BME280;36621;60.058;30.346;2023-06-22T20:09:45;100474.31;;;22.50;63.09
50650;BME280;36621;60.058;30.346;2023-06-22T20:17:18;100474.47;;;22.25;64.48
50650;BME280;36621;60.058;30.346;2023-06-22T20:24:53;100452.47;;;22.04;65.59
50650;BME280;36621;60.058;30.346;2023-06-22T20:32:26;100467.28;;;21.92;66.75
50650;BME280;36621;60.058;30.346;2023-06-22T20:39:58;100457.19;;;21.72;66.78
50650;BME280;36621;60.058;30.346;2023-06-22T20:47:31;100456.09;;;21.60;67.74
50650;BME280;36621;60.058;30.346;2023-06-22T20:55:04;100458.50;;;21.62;67.14
50650;BME280;36621;60.058;30.346;2023-06-22T21:02:39;100460.75;;;21.56;67.57
50650;BME280;36621;60.058;30.346;2023-06-22T21:10:11;100449.47;;;21.37;68.00
50650;BME280;36621;60.058;30.346;2023-06-22T21:17:46;100456.13;;;21.48;67.22
50650;BME280;36621;60.058;30.346;2023-06-22T21:25:19;100398.00;;;20.98;67.11
50650;BME280;36621;60.058;30.346;2023-06-22T21:32:51;100444.63;;;21.33;67.79
50650;BME280;36621;60.058;30.346;2023-06-22T21:40:25;100414.41;;;21.04;67.53
50650;BME280;36621;60.058;30.346;2023-06-22T21:47:58;100439.97;;;20.97;68.84
50650;BME280;36621;60.058;30.346;2023-06-22T21:55:30;100448.44;;;20.88;70.21
50650;BME280;36621;60.058;30.346;2023-06-22T22:03:03;100442.44;;;20.74;72.22
50650;BME280;36621;60.058;30.346;2023-06-22T22:10:35;100435.16;;;20.57;72.44
50650;BME280;36621;60.058;30.346;2023-06-22T22:18:11;100434.13;;;20.61;73.14
50650;BME280;36621;60.058;30.346;2023-06-22T22:25:43;100412.41;;;20.39;73.68
50650;BME280;36621;60.058;30.346;2023-06-22T22:33:16;100436.19;;;20.52;74.75
50650;BME280;36621;60.058;30.346;2023-06-22T22:40:48;100438.41;;;20.34;74.25
50650;BME280;36621;60.058;30.346;2023-06-22T22:48:20;100428.91;;;20.10;74.31
50650;BME280;36621;60.058;30.346;2023-06-22T22:55:52;100425.53;;;20.05;74.84
50650;BME280;36621;60.058;30.346;2023-06-22T23:03:25;100426.25;;;20.02;76.11
50650;BME280;36621;60.058;30.346;2023-06-22T23:10:57;100428.31;;;19.92;73.94
50650;BME280;36621;60.058;30.346;2023-06-22T23:18:30;100419.31;;;19.95;75.33
50650;BME280;36621;60.058;30.346;2023-06-22T23:26:02;100431.53;;;19.82;74.25
50650;BME280;36621;60.058;30.346;2023-06-22T23:33:35;100445.03;;;19.84;75.19
50650;BME280;36621;60.058;30.346;2023-06-22T23:41:09;100436.03;;;19.87;75.02
50650;BME280;36621;60.058;30.346;2023-06-22T23:48:42;100418.13;;;19.84;74.25
50650;BME280;36621;60.058;30.346;2023-06-22T23:56:15;100427.38;;;19.88;74.71
